createdAt,value
2023-04-14T00:02:10.298Z,3.16
2023-04-14T00:04:27.358Z,3.18
2023-04-14T00:06:44.507Z,3.13
2023-04-14T00:09:01.748Z,3.06
2023-04-14T00:11:19.194Z,3.05
2023-04-14T00:13:36.482Z,3.03
2023-04-14T00:15:53.815Z,2.97
2023-04-14T00:18:11.259Z,2.98
2023-04-14T00:20:28.599Z,2.94
2023-04-14T00:22:45.675Z,2.85
2023-04-14T00:25:02.999Z,2.83
2023-04-14T00:27:20.021Z,2.82
2023-04-14T00:29:36.894Z,2.83
2023-04-14T00:31:55.131Z,2.80
2023-04-14T00:34:12.124Z,2.80
2023-04-14T00:36:29.033Z,2.77
2023-04-14T00:38:46.033Z,2.71
2023-04-14T00:41:02.962Z,2.63
2023-04-14T00:43:20.732Z,2.61
2023-04-14T00:45:38.111Z,2.56
2023-04-14T00:47:55.215Z,2.50
2023-04-14T00:50:15.350Z,2.45
2023-04-14T00:52:32.898Z,2.43
2023-04-14T00:54:49.876Z,2.41
2023-04-14T00:57:06.967Z,2.38
2023-04-14T00:59:24.043Z,2.42
2023-04-14T01:01:41.138Z,2.41
2023-04-14T01:03:59.327Z,2.38
2023-04-14T01:06:16.803Z,2.29
2023-04-14T01:08:34.794Z,2.24
2023-04-14T01:10:51.820Z,2.25
2023-04-14T01:13:09.087Z,2.26
2023-04-14T01:15:26.372Z,2.25
2023-04-14T01:17:43.494Z,2.27
2023-04-14T01:20:00.839Z,2.20
2023-04-14T01:22:17.779Z,2.14
2023-04-14T01:24:34.866Z,2.11
2023-04-14T01:26:51.865Z,2.07
2023-04-14T01:29:08.745Z,2.03
2023-04-14T01:31:26.528Z,2.02
2023-04-14T01:33:43.796Z,1.99
2023-04-14T01:36:01.820Z,1.94
2023-04-14T01:38:19.150Z,1.91
2023-04-14T01:40:36.175Z,1.89
2023-04-14T01:42:53.205Z,1.86
2023-04-14T01:45:10.095Z,1.85
2023-04-14T01:47:27.315Z,1.81
2023-04-14T01:49:44.490Z,1.87
2023-04-14T01:52:01.517Z,1.85
2023-04-14T01:54:18.515Z,1.90
2023-04-14T01:56:35.481Z,1.88
2023-04-14T01:58:52.808Z,1.85
2023-04-14T02:01:09.793Z,1.78
2023-04-14T02:03:27.131Z,1.72
2023-04-14T02:05:44.048Z,1.69
2023-04-14T02:08:01.352Z,1.72
2023-04-14T02:10:18.373Z,1.71
2023-04-14T02:12:35.635Z,1.67
2023-04-14T02:14:52.913Z,1.62
2023-04-14T02:17:10.173Z,1.62
2023-04-14T02:19:27.137Z,1.63
2023-04-14T02:21:44.204Z,1.61
2023-04-14T02:24:02.084Z,1.59
2023-04-14T02:26:20.014Z,1.62
2023-04-14T02:28:38.053Z,1.64
2023-04-14T02:30:54.908Z,1.60
2023-04-14T02:33:12.173Z,1.54
2023-04-14T02:35:29.246Z,1.52
2023-04-14T02:37:46.525Z,1.54
2023-04-14T02:40:04.596Z,1.49
2023-04-14T02:42:21.747Z,1.48
2023-04-14T02:44:38.834Z,1.48
2023-04-14T02:46:55.918Z,1.48
2023-04-14T02:49:14.020Z,1.48
2023-04-14T02:51:32.228Z,1.48
2023-04-14T02:53:49.500Z,1.45
2023-04-14T02:56:06.549Z,1.41
2023-04-14T02:58:25.958Z,1.37
2023-04-14T03:00:43.194Z,1.35
2023-04-14T03:03:01.229Z,1.34
2023-04-14T03:05:18.641Z,1.32
2023-04-14T03:07:35.699Z,1.30
2023-04-14T03:09:54.130Z,1.25
2023-04-14T03:12:11.613Z,1.21
2023-04-14T03:14:28.891Z,1.18
2023-04-14T03:16:46.182Z,1.15
2023-04-14T03:19:03.395Z,1.16
2023-04-14T03:21:20.409Z,1.15
2023-04-14T03:23:37.475Z,1.14
2023-04-14T03:25:54.383Z,1.12
2023-04-14T03:28:11.378Z,1.10
2023-04-14T03:30:29.676Z,1.11
2023-04-14T03:32:47.925Z,1.09
2023-04-14T03:35:05.234Z,1.06
2023-04-14T03:37:22.136Z,1.06
2023-04-14T03:39:39.361Z,1.06
2023-04-14T03:41:56.398Z,1.03
2023-04-14T03:44:13.628Z,0.99
2023-04-14T03:46:31.630Z,0.99
2023-04-14T03:48:49.075Z,1.01
2023-04-14T03:51:07.330Z,1.03
2023-04-14T03:53:24.336Z,1.00
2023-04-14T03:55:41.304Z,0.98
2023-04-14T03:57:58.426Z,0.97
2023-04-14T04:00:16.738Z,0.95
2023-04-14T04:02:33.862Z,0.94
2023-04-14T04:04:51.243Z,0.93
2023-04-14T04:07:08.225Z,0.90
2023-04-14T04:09:25.487Z,0.89
2023-04-14T04:11:42.503Z,0.88
2023-04-14T04:13:59.485Z,0.85
2023-04-14T04:16:16.538Z,0.84
2023-04-14T04:18:33.818Z,0.81
2023-04-14T04:20:50.844Z,0.83
2023-04-14T04:23:07.811Z,0.84
2023-04-14T04:25:25.111Z,0.80
2023-04-14T04:27:42.195Z,0.79
2023-04-14T04:29:59.225Z,0.78
2023-04-14T04:32:16.260Z,0.79
2023-04-14T04:34:34.367Z,0.78
2023-04-14T04:36:51.414Z,0.78
2023-04-14T04:39:08.434Z,0.78
2023-04-14T04:41:25.467Z,0.75
2023-04-14T04:43:42.347Z,0.71
2023-04-14T04:45:59.431Z,0.71
2023-04-14T04:48:16.719Z,0.68
2023-04-14T04:50:33.756Z,0.67
2023-04-14T04:52:50.694Z,0.65
2023-04-14T04:55:07.927Z,0.67
2023-04-14T04:57:25.173Z,0.70
2023-04-14T04:59:42.165Z,0.70
2023-04-14T05:02:00.518Z,0.72
2023-04-14T05:04:17.718Z,0.73
2023-04-14T05:06:35.177Z,0.72
2023-04-14T05:08:52.097Z,0.70
2023-04-14T05:11:09.169Z,0.69
2023-04-14T05:13:26.421Z,0.69
2023-04-14T05:15:43.477Z,0.73
2023-04-14T05:18:00.824Z,0.79
2023-04-14T05:20:19.174Z,0.84
2023-04-14T05:22:36.204Z,0.88
2023-04-14T05:24:53.283Z,0.88
2023-04-14T05:27:14.229Z,0.88
2023-04-14T05:29:31.825Z,0.85
2023-04-14T05:31:49.150Z,0.83
2023-04-14T05:34:06.494Z,0.86
2023-04-14T05:36:23.417Z,0.90
2023-04-14T05:38:40.767Z,0.94
2023-04-14T05:40:58.688Z,0.93
2023-04-14T05:43:15.929Z,0.96
2023-04-14T05:45:33.154Z,1.04
2023-04-14T05:47:50.287Z,1.07
2023-04-14T05:50:07.359Z,1.05
2023-04-14T05:52:24.622Z,1.07
2023-04-14T05:54:43.217Z,1.11
2023-04-14T05:57:00.706Z,1.15
2023-04-14T05:59:18.070Z,1.19
2023-04-14T06:01:35.143Z,1.20
2023-04-14T06:03:52.525Z,1.20
2023-04-14T06:06:10.048Z,1.25
2023-04-14T06:08:27.265Z,1.33
2023-04-14T06:10:44.486Z,1.36
2023-04-14T06:13:01.333Z,1.38
2023-04-14T06:15:18.254Z,1.42
2023-04-14T06:17:35.309Z,1.45
2023-04-14T06:19:52.407Z,1.46
2023-04-14T06:22:09.640Z,1.48
2023-04-14T06:24:26.968Z,1.57
2023-04-14T06:26:44.011Z,1.62
2023-04-14T06:29:01.394Z,1.68
2023-04-14T06:31:18.826Z,1.77
2023-04-14T06:33:35.890Z,1.90
2023-04-14T06:35:52.949Z,1.99
2023-04-14T06:38:09.985Z,2.14
2023-04-14T06:40:26.987Z,2.33
2023-04-14T06:42:43.930Z,2.51
2023-04-14T06:45:00.994Z,2.67
2023-04-14T06:47:17.892Z,2.84
2023-04-14T06:49:35.095Z,2.98
2023-04-14T06:51:52.187Z,3.14
2023-04-14T06:54:09.422Z,3.30
2023-04-14T06:56:26.432Z,3.42
2023-04-14T06:58:44.758Z,3.59
2023-04-14T07:01:01.868Z,3.70
2023-04-14T07:03:19.094Z,3.83
2023-04-14T07:05:37.139Z,4.00
2023-04-14T07:07:55.140Z,4.11
2023-04-14T07:10:12.527Z,4.26
2023-04-14T07:12:29.517Z,4.43
2023-04-14T07:14:46.512Z,4.59
2023-04-14T07:17:03.754Z,4.73
2023-04-14T07:19:21.089Z,4.90
2023-04-14T07:21:39.066Z,5.07
2023-04-14T07:23:56.099Z,5.17
2023-04-14T07:26:13.035Z,5.37
2023-04-14T07:28:30.288Z,5.57
2023-04-14T07:30:48.557Z,5.74
2023-04-14T07:33:05.696Z,5.93
2023-04-14T07:35:22.672Z,6.04
2023-04-14T07:37:39.977Z,6.18
2023-04-14T07:39:57.024Z,6.32
2023-04-14T07:42:13.939Z,6.49
2023-04-14T07:44:30.989Z,6.66
2023-04-14T07:46:48.459Z,6.88
2023-04-14T07:49:05.349Z,7.06
2023-04-14T07:51:23.398Z,7.27
2023-04-14T07:53:41.466Z,7.43
2023-04-14T07:55:58.758Z,7.60
2023-04-14T07:58:15.937Z,7.76
2023-04-14T08:00:33.292Z,7.97
2023-04-14T08:02:50.512Z,8.17
2023-04-14T08:05:08.040Z,8.31
2023-04-14T08:07:25.316Z,8.50
2023-04-14T08:09:42.148Z,8.72
2023-04-14T08:11:59.195Z,8.89
2023-04-14T08:14:16.460Z,9.07
2023-04-14T08:16:33.481Z,9.23
2023-04-14T08:18:50.519Z,9.40
2023-04-14T08:21:07.772Z,9.61
2023-04-14T08:23:25.876Z,9.76
2023-04-14T08:25:43.279Z,9.95
2023-04-14T08:28:00.223Z,10.07
2023-04-14T08:30:17.286Z,10.14
2023-04-14T08:32:34.664Z,10.30
2023-04-14T08:35:36.914Z,10.46
2023-04-14T08:37:28.920Z,10.59
2023-04-14T08:39:45.809Z,10.64
2023-04-14T08:42:02.887Z,10.80
2023-04-14T08:44:21.169Z,10.90
2023-04-14T08:46:38.037Z,10.99
2023-04-14T08:48:55.092Z,11.16
2023-04-14T08:51:12.017Z,11.23
2023-04-14T08:53:29.017Z,11.34
2023-04-14T08:55:46.062Z,11.58
2023-04-14T08:58:03.351Z,11.66
2023-04-14T09:00:20.238Z,11.80
2023-04-14T09:02:37.582Z,11.91
2023-04-14T09:04:54.617Z,12.01
2023-04-14T09:07:11.781Z,12.10
2023-04-14T09:09:30.086Z,12.06
2023-04-14T09:11:47.138Z,12.24
2023-04-14T09:14:04.461Z,12.36
2023-04-14T09:16:22.008Z,12.50
2023-04-14T09:18:40.341Z,12.34
2023-04-14T09:21:50.182Z,12.59
2023-04-14T09:23:34.971Z,12.63
2023-04-14T09:25:52.076Z,12.66
2023-04-14T09:28:09.121Z,12.76
2023-04-14T09:30:26.236Z,13.01
2023-04-14T09:32:43.547Z,13.11
2023-04-14T09:35:00.584Z,13.21
2023-04-14T09:37:17.616Z,13.34
2023-04-14T09:39:35.609Z,13.41
2023-04-14T09:41:52.666Z,13.38
2023-04-14T09:44:10.508Z,13.40
2023-04-14T09:46:27.599Z,13.35
2023-04-14T09:48:44.518Z,13.27
2023-04-14T09:51:01.414Z,13.38
2023-04-14T09:53:18.376Z,13.34
2023-04-14T09:55:35.348Z,13.43
2023-04-14T09:57:52.255Z,13.50
2023-04-14T10:00:10.670Z,13.64
2023-04-14T10:02:27.882Z,14.04
2023-04-14T10:04:44.991Z,14.11
2023-04-14T10:07:02.285Z,14.05
2023-04-14T10:09:19.288Z,14.02
2023-04-14T10:11:36.359Z,14.28
2023-04-14T10:13:53.461Z,14.34
2023-04-14T10:16:10.509Z,14.60
2023-04-14T10:18:27.835Z,14.67
2023-04-14T10:20:45.019Z,14.74
2023-04-14T10:23:02.330Z,14.62
2023-04-14T10:25:19.294Z,14.73
2023-04-14T10:27:36.597Z,14.91
2023-04-14T10:29:53.628Z,15.00
2023-04-14T10:32:10.943Z,15.45
2023-04-14T10:34:27.877Z,15.54
2023-04-14T10:36:44.819Z,15.32
2023-04-14T10:39:02.730Z,15.63
2023-04-14T10:41:20.372Z,15.56
2023-04-14T10:43:37.443Z,15.55
2023-04-14T10:45:54.778Z,15.55
2023-04-14T10:48:11.990Z,15.56
2023-04-14T10:50:30.017Z,15.49
2023-04-14T10:52:47.072Z,15.21
2023-04-14T10:55:04.315Z,14.88
2023-04-14T10:57:21.372Z,14.58
2023-04-14T10:59:38.720Z,14.35
2023-04-14T11:01:56.042Z,14.18
2023-04-14T11:04:13.312Z,14.02
2023-04-14T11:06:30.781Z,14.03
2023-04-14T11:08:48.698Z,13.61
2023-04-14T11:11:05.605Z,13.34
2023-04-14T11:13:22.575Z,13.30
2023-04-14T11:15:39.632Z,13.28
2023-04-14T11:17:56.896Z,13.23
2023-04-14T11:20:14.002Z,13.15
2023-04-14T11:22:31.049Z,13.01
2023-04-14T11:24:48.037Z,13.06
2023-04-14T11:27:05.071Z,13.08
2023-04-14T11:29:22.318Z,13.27
2023-04-14T11:31:39.567Z,13.25
2023-04-14T11:33:56.639Z,13.21
2023-04-14T11:36:13.746Z,13.18
2023-04-14T11:38:30.973Z,13.31
2023-04-14T11:40:48.187Z,13.36
2023-04-14T11:43:05.116Z,13.47
2023-04-14T11:45:22.222Z,13.37
2023-04-14T11:47:39.524Z,13.40
2023-04-14T11:49:56.846Z,13.65
2023-04-14T11:52:13.911Z,14.16
2023-04-14T11:54:31.308Z,14.69
2023-04-14T11:56:48.330Z,15.18
2023-04-14T11:59:05.347Z,15.46
2023-04-14T12:01:22.360Z,15.65
2023-04-14T12:03:39.646Z,15.73
2023-04-14T12:05:57.013Z,15.59
2023-04-14T12:08:14.509Z,15.86
2023-04-14T12:10:32.103Z,15.89
2023-04-14T12:12:49.097Z,16.11
2023-04-14T12:15:06.140Z,16.21
2023-04-14T12:17:23.181Z,16.40
2023-04-14T12:19:40.046Z,16.58
2023-04-14T12:21:57.042Z,16.84
2023-04-14T12:24:14.090Z,16.82
2023-04-14T12:26:31.112Z,16.91
2023-04-14T12:28:48.087Z,17.08
2023-04-14T12:31:05.393Z,16.57
2023-04-14T12:33:22.390Z,15.92
2023-04-14T12:35:39.399Z,15.88
2023-04-14T12:37:56.450Z,15.65
2023-04-14T12:40:13.519Z,15.22
2023-04-14T12:42:30.453Z,15.03
2023-04-14T12:44:47.770Z,14.78
2023-04-14T12:47:06.011Z,14.81
2023-04-14T12:49:23.066Z,14.64
2023-04-14T12:51:40.164Z,14.59
2023-04-14T12:53:57.375Z,14.65
2023-04-14T12:56:14.433Z,14.69
2023-04-14T12:58:31.509Z,14.72
2023-04-14T13:00:48.558Z,14.76
2023-04-14T13:03:05.743Z,14.39
2023-04-14T13:05:23.175Z,14.48
2023-04-14T13:07:40.451Z,14.49
2023-04-14T13:09:58.639Z,14.49
2023-04-14T13:12:15.598Z,14.60
2023-04-14T13:14:32.564Z,14.52
2023-04-14T13:16:49.580Z,14.41
2023-04-14T13:19:06.982Z,14.41
2023-04-14T13:21:24.227Z,14.38
2023-04-14T13:23:41.535Z,14.43
2023-04-14T13:25:58.741Z,14.42
2023-04-14T13:28:15.974Z,14.43
2023-04-14T13:30:33.276Z,14.42
2023-04-14T13:32:51.344Z,14.36
2023-04-14T13:35:09.437Z,14.30
2023-04-14T13:37:26.726Z,14.33
2023-04-14T13:39:43.708Z,14.34
2023-04-14T13:42:00.665Z,14.35
2023-04-14T13:44:18.000Z,14.48
2023-04-14T13:46:40.844Z,14.53
2023-04-14T13:48:58.652Z,14.60
2023-04-14T13:51:15.622Z,14.77
2023-04-14T13:53:32.700Z,14.79
2023-04-14T13:55:49.991Z,14.54
2023-04-14T13:58:07.323Z,14.52
2023-04-14T14:00:24.325Z,14.48
2023-04-14T14:02:42.775Z,14.51
2023-04-14T14:04:59.844Z,14.52
2023-04-14T14:07:17.129Z,14.44
2023-04-14T14:09:34.219Z,14.37
2023-04-14T14:11:51.320Z,14.41
2023-04-14T14:14:08.264Z,14.32
2023-04-14T14:16:36.031Z,14.28
2023-04-14T14:18:55.174Z,14.19
2023-04-14T14:21:12.228Z,14.20
2023-04-14T14:23:29.312Z,14.14
2023-04-14T14:25:46.331Z,14.10
2023-04-14T14:28:03.344Z,14.09
2023-04-14T14:30:20.730Z,14.21
2023-04-14T14:32:38.809Z,14.30
2023-04-14T14:34:56.091Z,14.52
2023-04-14T14:37:13.440Z,14.95
2023-04-14T14:39:30.511Z,15.37
2023-04-14T14:41:47.566Z,15.65
2023-04-14T14:44:04.824Z,15.98
2023-04-14T14:46:21.996Z,16.34
2023-04-14T14:48:39.050Z,16.50
2023-04-14T14:50:56.095Z,16.46
2023-04-14T14:53:14.270Z,16.17
2023-04-14T14:55:31.328Z,15.91
2023-04-14T14:57:48.634Z,15.59
2023-04-14T15:00:05.922Z,15.35
2023-04-14T15:02:23.130Z,15.18
2023-04-14T15:04:41.285Z,15.00
2023-04-14T15:06:58.750Z,14.90
2023-04-14T15:09:15.780Z,15.02
2023-04-14T15:11:32.877Z,15.18
2023-04-14T15:13:50.007Z,15.34
2023-04-14T15:16:07.970Z,15.42
2023-04-14T15:18:25.316Z,15.53
2023-04-14T15:20:42.582Z,15.49
2023-04-14T15:22:59.638Z,15.37
2023-04-14T15:25:16.728Z,15.31
2023-04-14T15:27:33.990Z,15.27
2023-04-14T15:29:51.115Z,15.12
2023-04-14T15:32:08.043Z,14.90
2023-04-14T15:34:25.415Z,14.68
2023-04-14T15:36:43.685Z,14.50
2023-04-14T15:39:00.967Z,14.33
2023-04-14T15:41:18.224Z,14.24
2023-04-14T15:43:35.334Z,14.10
2023-04-14T15:45:52.394Z,14.12
2023-04-14T15:48:09.439Z,14.19
2023-04-14T15:50:26.437Z,14.30
2023-04-14T15:52:44.740Z,14.50
2023-04-14T15:55:01.938Z,14.65
2023-04-14T15:57:19.229Z,14.82
2023-04-14T15:59:36.562Z,15.00
2023-04-14T16:01:54.120Z,14.96
2023-04-14T16:04:11.426Z,14.79
2023-04-14T16:06:28.570Z,14.70
2023-04-14T16:08:46.613Z,14.70
2023-04-14T16:11:03.930Z,14.68
2023-04-14T16:13:21.833Z,14.65
2023-04-14T16:15:38.745Z,14.60
2023-04-14T16:17:56.091Z,14.65
2023-04-14T16:20:13.476Z,14.71
2023-04-14T16:22:30.750Z,14.77
2023-04-14T16:24:47.656Z,14.78
2023-04-14T16:27:04.908Z,14.81
2023-04-14T16:29:22.834Z,14.84
2023-04-14T16:31:39.779Z,14.84
2023-04-14T16:33:56.697Z,14.86
2023-04-14T16:36:13.957Z,14.82
2023-04-14T16:38:32.015Z,14.84
2023-04-14T16:40:49.144Z,14.84
2023-04-14T16:43:06.170Z,14.89
2023-04-14T16:45:23.427Z,14.86
2023-04-14T16:47:40.581Z,14.85
2023-04-14T16:49:58.664Z,14.84
2023-04-14T16:52:15.679Z,14.87
2023-04-14T16:54:33.547Z,14.87
2023-04-14T16:56:50.594Z,14.81
2023-04-14T16:59:07.615Z,14.84
2023-04-14T17:01:25.024Z,14.81
2023-04-14T17:03:42.615Z,14.77
2023-04-14T17:05:59.844Z,14.74
2023-04-14T17:08:17.204Z,14.74
2023-04-14T17:10:34.128Z,14.71
2023-04-14T17:12:51.206Z,14.72
2023-04-14T17:15:08.622Z,14.68
2023-04-14T17:17:25.660Z,14.58
2023-04-14T17:19:42.958Z,14.47
2023-04-14T17:22:01.019Z,14.35
2023-04-14T17:24:18.349Z,14.19
2023-04-14T17:26:35.380Z,13.98
2023-04-14T17:28:52.432Z,13.77
2023-04-14T17:31:09.774Z,13.52
2023-04-14T17:33:26.863Z,13.25
2023-04-14T17:35:43.919Z,13.06
2023-04-14T17:38:01.236Z,12.85
2023-04-14T17:40:18.499Z,12.67
2023-04-14T17:42:35.562Z,12.49
2023-04-14T17:44:52.873Z,12.27
2023-04-14T17:47:09.881Z,12.05
2023-04-14T17:49:27.216Z,11.91
2023-04-14T17:51:44.500Z,11.71
2023-04-14T17:54:02.022Z,11.57
2023-04-14T17:56:19.311Z,11.42
2023-04-14T17:58:36.237Z,11.28
2023-04-14T18:00:53.513Z,11.15
2023-04-14T18:03:10.893Z,11.03
2023-04-14T18:05:27.850Z,10.91
2023-04-14T18:07:45.176Z,10.78
2023-04-14T18:10:02.250Z,10.66
2023-04-14T18:12:19.540Z,10.56
2023-04-14T18:14:36.650Z,10.45
2023-04-14T18:16:53.764Z,10.35
2023-04-14T18:19:10.880Z,10.17
2023-04-14T18:21:29.176Z,10.08
2023-04-14T18:24:47.809Z,9.97
2023-04-14T18:28:43.110Z,9.75
2023-04-14T18:31:00.190Z,9.65
2023-04-14T18:33:17.277Z,9.56
2023-04-14T18:35:35.263Z,9.47
2023-04-14T18:37:52.144Z,9.37
2023-04-14T18:40:09.107Z,9.26
2023-04-14T18:42:26.142Z,9.17
2023-04-14T18:44:43.181Z,9.08
2023-04-14T18:47:00.451Z,8.99
2023-04-14T18:49:17.649Z,8.88
2023-04-14T18:51:34.578Z,8.79
2023-04-14T18:53:51.519Z,8.68
2023-04-14T18:56:08.480Z,8.58
2023-04-14T18:58:26.775Z,8.48
2023-04-14T19:00:43.785Z,8.43
2023-04-14T19:03:00.774Z,8.36
2023-04-14T19:05:17.799Z,8.32
2023-04-14T19:07:34.864Z,8.21
2023-04-14T19:09:51.934Z,8.11
2023-04-14T19:12:18.427Z,8.03
2023-04-14T19:14:44.671Z,7.94
2023-04-14T19:17:01.613Z,7.87
2023-04-14T19:19:19.650Z,7.81
2023-04-14T19:21:36.610Z,7.75
2023-04-14T19:23:53.923Z,7.67
2023-04-14T19:26:10.960Z,7.60
2023-04-14T19:28:29.032Z,7.58
2023-04-14T19:30:46.060Z,7.51
2023-04-14T19:33:03.274Z,7.45
2023-04-14T19:35:21.670Z,7.40
2023-04-14T19:37:38.711Z,7.30
2023-04-14T19:39:55.938Z,7.19
2023-04-14T19:42:14.068Z,7.14
2023-04-14T19:44:30.933Z,7.09
2023-04-14T19:46:48.051Z,7.03
2023-04-14T19:49:05.311Z,7.01
2023-04-14T19:51:22.313Z,6.96
2023-04-14T19:53:39.196Z,6.92
2023-04-14T19:55:56.158Z,6.87
2023-04-14T19:58:13.188Z,6.83
2023-04-14T20:00:30.513Z,6.81
2023-04-14T20:02:47.530Z,6.75
2023-04-14T20:05:04.830Z,6.66
2023-04-14T20:07:21.836Z,6.55
2023-04-14T20:09:38.780Z,6.47
2023-04-14T20:11:56.041Z,6.41
2023-04-14T20:14:13.305Z,6.37
2023-04-14T20:16:30.228Z,6.32
2023-04-14T20:18:48.386Z,6.28
2023-04-14T20:21:05.254Z,6.25
2023-04-14T20:23:22.477Z,6.26
2023-04-14T20:25:39.392Z,6.21
2023-04-14T20:27:56.729Z,6.17
2023-04-14T20:30:13.777Z,6.12
2023-04-14T20:32:30.856Z,6.07
2023-04-14T20:34:48.902Z,6.01
2023-04-14T20:37:06.182Z,5.95
2023-04-14T20:39:23.502Z,5.92
2023-04-14T20:41:40.743Z,5.87
2023-04-14T20:43:58.636Z,5.83
2023-04-14T20:46:17.014Z,5.77
2023-04-14T20:48:35.053Z,5.70
2023-04-14T20:50:52.074Z,5.65
2023-04-14T20:53:10.413Z,5.61
2023-04-14T20:55:27.568Z,5.59
2023-04-14T20:57:45.518Z,5.53
2023-04-14T21:00:02.575Z,5.53
2023-04-14T21:02:19.743Z,5.51
2023-04-14T21:04:36.734Z,5.49
2023-04-14T21:06:53.996Z,5.39
2023-04-14T21:09:11.286Z,5.34
2023-04-14T21:11:28.241Z,5.33
2023-04-14T21:15:28.685Z,5.30
2023-04-14T21:16:22.303Z,5.27
2023-04-14T21:18:39.326Z,5.24
2023-04-14T21:20:56.258Z,5.17
2023-04-14T21:23:13.591Z,5.13
2023-04-14T21:25:30.866Z,5.11
2023-04-14T21:27:48.105Z,5.06
2023-04-14T21:30:05.172Z,4.99
2023-04-14T21:32:22.233Z,4.95
2023-04-14T21:34:39.560Z,4.90
2023-04-14T21:36:56.644Z,4.91
2023-04-14T21:39:13.947Z,4.87
2023-04-14T21:41:31.286Z,4.86
2023-04-14T21:43:48.529Z,4.80
2023-04-14T21:46:05.694Z,4.77
2023-04-14T21:48:22.827Z,4.75
2023-04-14T21:50:39.766Z,4.71
2023-04-14T21:52:57.072Z,4.68
2023-04-14T21:55:14.280Z,4.67
2023-04-14T21:57:49.021Z,4.62
2023-04-14T22:00:07.116Z,4.58
2023-04-14T22:02:25.451Z,4.55
2023-04-14T22:04:42.758Z,4.51
2023-04-14T22:07:00.488Z,4.47
2023-04-14T22:09:17.547Z,4.43
2023-04-14T22:11:34.661Z,4.38
2023-04-14T22:13:51.671Z,4.35
2023-04-14T22:16:09.932Z,4.33
2023-04-14T22:18:27.240Z,4.31
2023-04-14T22:20:45.444Z,4.28
2023-04-14T22:23:02.470Z,4.24
2023-04-14T22:25:19.462Z,4.20
2023-04-14T22:27:37.492Z,4.18
2023-04-14T22:29:54.557Z,4.19
2023-04-14T22:32:12.656Z,4.14
2023-04-14T22:34:29.709Z,4.11
2023-04-14T22:36:47.992Z,4.09
2023-04-14T22:39:05.217Z,4.05
2023-04-14T22:41:22.194Z,4.01
2023-04-14T22:43:39.100Z,3.98
2023-04-14T22:45:56.422Z,3.91
2023-04-14T22:48:13.414Z,3.86
2023-04-14T22:50:30.434Z,3.83
2023-04-14T22:52:47.659Z,3.79
2023-04-14T22:55:04.692Z,3.74
2023-04-14T22:57:21.661Z,3.71
2023-04-14T22:59:38.726Z,3.68
2023-04-14T23:01:55.714Z,3.67
2023-04-14T23:04:13.883Z,3.69
2023-04-14T23:06:30.984Z,3.70
2023-04-14T23:08:47.954Z,3.67
2023-04-14T23:11:05.198Z,3.64
2023-04-14T23:13:22.514Z,3.60
2023-04-14T23:15:39.607Z,3.54
2023-04-14T23:17:56.551Z,3.45
2023-04-14T23:20:14.112Z,3.45
2023-04-14T23:22:31.136Z,3.42
2023-04-14T23:24:48.147Z,3.40
2023-04-14T23:27:05.144Z,3.39
2023-04-14T23:29:22.181Z,3.38
2023-04-14T23:31:39.253Z,3.36
2023-04-14T23:33:56.156Z,3.33
2023-04-14T23:36:13.376Z,3.31
2023-04-14T23:38:30.400Z,3.32
2023-04-14T23:40:47.470Z,3.26
2023-04-14T23:43:04.469Z,3.19
2023-04-14T23:45:21.479Z,3.17
2023-04-14T23:47:38.796Z,3.19
2023-04-14T23:49:56.213Z,3.19
2023-04-14T23:52:13.166Z,3.16
2023-04-14T23:54:30.478Z,3.11
2023-04-14T23:56:47.762Z,3.07
2023-04-14T23:59:05.908Z,3.02
